Time;durP1;ratioP1;P1;durP2;ratioP2;P2;SDS_P1;SDS_P2;PMS_P1;PMS_P2;Temp;Humidity;BMP_temperature;BMP_pressure;BME280_temperature;BME280_humidity;BME280_pressure;Samples;Min_cycle;Max_cycle;Signal;HPM_P1;HPM_P2
2021/10/22 00:00:54;;;;;;;0.10;0.10;;;;;;;10.06;60.84;101529.63;5035804;28;20040;-87
2021/10/22 00:03:22;;;;;;;0.10;0.10;;;;;;;10.04;60.67;101536.69;5037464;28;20025;-86
2021/10/22 00:05:49;;;;;;;0.10;0.10;;;;;;;10.00;60.31;101535.84;5041652;28;20037;-87
2021/10/22 00:08:16;;;;;;;0.10;0.10;;;;;;;10.00;60.18;101532.31;5046167;28;20110;-87
2021/10/22 00:10:42;;;;;;;0.10;0.10;;;;;;;9.99;60.00;101528.81;5042201;28;20025;-86
2021/10/22 00:13:10;;;;;;;0.10;0.10;;;;;;;9.94;60.13;101535.00;5039385;28;20037;-87
2021/10/22 00:15:37;;;;;;;0.10;0.10;;;;;;;9.90;60.20;101533.28;5042684;28;20528;-86
2021/10/22 00:18:03;;;;;;;0.10;0.10;;;;;;;9.93;60.41;101523.56;5043506;28;20037;-88
2021/10/22 00:20:30;;;;;;;0.08;0.08;;;;;;;9.90;60.26;101520.91;5044231;28;20021;-87
2021/10/22 00:22:56;;;;;;;0.10;0.10;;;;;;;9.81;60.19;101524.50;5042020;28;20060;-87
2021/10/22 00:25:23;;;;;;;0.05;0.05;;;;;;;9.77;60.43;101521.84;5045876;28;20021;-87
2021/10/22 00:27:51;;;;;;;0.10;0.10;;;;;;;9.76;60.35;101525.38;5041039;28;20026;-87
2021/10/22 00:30:18;;;;;;;0.10;0.10;;;;;;;9.76;59.95;101518.34;5046354;28;20033;-87
2021/10/22 00:32:45;;;;;;;0.10;0.10;;;;;;;9.76;59.32;101528.03;5047343;28;20403;-87
2021/10/22 00:35:11;;;;;;;0.10;0.10;;;;;;;9.75;60.08;101528.94;5046439;28;20431;-87
2021/10/22 00:37:38;;;;;;;0.10;0.10;;;;;;;9.74;60.09;101533.34;5050103;28;20037;-87
2021/10/22 00:40:05;;;;;;;0.10;0.10;;;;;;;9.70;59.83;101518.38;5049341;28;20487;-87
2021/10/22 00:42:33;;;;;;;0.10;0.10;;;;;;;9.66;59.55;101522.81;5042734;28;20031;-87
2021/10/22 00:45:03;;;;;;;0.00;0.00;;;;;;;9.67;59.84;101519.28;5049594;28;20040;-86
2021/10/22 00:47:29;;;;;;;0.38;0.38;;;;;;;9.66;59.16;101520.16;5043747;28;20036;-86
2021/10/22 00:49:56;;;;;;;0.10;0.10;;;;;;;9.66;59.40;101514.88;5047880;28;20025;-87
2021/10/22 00:52:27;;;;;;;0.10;0.10;;;;;;;9.67;59.58;101516.63;5049693;28;20040;-89
2021/10/22 00:54:54;;;;;;;0.10;0.10;;;;;;;9.67;59.12;101511.34;5048652;28;20051;-89
2021/10/22 00:57:27;;;;;;;0.10;0.10;;;;;;;9.67;59.00;101510.44;5042250;28;20028;-87
2021/10/22 01:00:05;;;;;;;0.10;0.10;;;;;;;9.68;59.14;101506.91;5045724;28;20025;-87
2021/10/22 01:02:35;;;;;;;0.10;0.10;;;;;;;9.65;59.51;101518.41;5047661;28;20479;-87
2021/10/22 01:05:09;;;;;;;0.15;0.15;;;;;;;9.65;58.62;101506.94;5039397;28;20502;-87
2021/10/22 01:07:39;;;;;;;0.10;0.10;;;;;;;9.66;59.22;101517.50;5042476;28;20033;-87
2021/10/22 01:10:06;;;;;;;2.38;2.08;;;;;;;9.65;59.33;101513.09;5042936;28;20030;-87
2021/10/22 01:12:34;;;;;;;0.10;0.10;;;;;;;9.68;58.94;101514.84;5040011;28;20124;-87
2021/10/22 01:15:01;;;;;;;0.10;0.10;;;;;;;9.65;58.97;101507.81;5040027;28;20040;-87
2021/10/22 01:17:33;;;;;;;0.10;0.10;;;;;;;9.67;58.91;101505.16;5041438;28;20029;-88
2021/10/22 01:20:03;;;;;;;0.10;0.10;;;;;;;9.67;58.16;101514.00;5039017;28;20037;-87
2021/10/22 01:22:30;;;;;;;0.20;0.20;;;;;;;9.72;59.13;101506.03;5042847;28;20036;-87
2021/10/22 01:24:56;;;;;;;0.10;0.10;;;;;;;9.71;58.55;101510.44;5038515;28;20020;-87
2021/10/22 01:27:24;;;;;;;0.10;0.10;;;;;;;9.75;58.09;101505.13;5041204;28;20029;-87
2021/10/22 01:29:50;;;;;;;0.10;0.10;;;;;;;9.79;58.07;101501.56;5043837;28;20028;-89
2021/10/22 01:32:17;;;;;;;2.47;2.25;;;;;;;9.77;57.95;101493.66;5048138;28;20127;-89
2021/10/22 01:34:44;;;;;;;0.08;0.08;;;;;;;9.87;57.89;101498.00;5045356;28;20033;-89
2021/10/22 01:37:11;;;;;;;0.10;0.10;;;;;;;9.91;57.98;101490.91;5045084;28;20068;-87
2021/10/22 01:39:37;;;;;;;0.10;0.10;;;;;;;9.95;58.05;101483.81;5040181;28;20064;-88
2021/10/22 01:42:04;;;;;;;0.05;0.05;;;;;;;9.96;57.72;101485.59;5044012;28;20071;-88
2021/10/22 01:44:30;;;;;;;0.10;0.10;;;;;;;9.94;57.43;101482.06;5037936;28;20495;-88
2021/10/22 01:46:57;;;;;;;0.17;0.17;;;;;;;9.93;57.94;101486.50;5047001;28;20021;-89
2021/10/22 01:49:23;;;;;;;0.10;0.10;;;;;;;9.97;58.07;101479.38;5039238;28;20092;-87
2021/10/22 01:51:50;;;;;;;0.10;0.10;;;;;;;9.98;57.53;101478.50;5049432;28;20033;-87
2021/10/22 01:54:17;;;;;;;0.45;0.43;;;;;;;9.92;57.84;101482.09;5043889;28;20029;-86
2021/10/22 01:56:44;;;;;;;0.10;0.10;;;;;;;9.98;58.03;101482.03;5039941;28;20033;-86
2021/10/22 01:59:10;;;;;;;0.10;0.10;;;;;;;9.92;58.18;101476.78;5043074;28;20037;-87
2021/10/22 02:01:37;;;;;;;0.10;0.10;;;;;;;9.95;57.91;101468.81;5046616;28;20472;-86
2021/10/22 02:04:03;;;;;;;0.32;0.32;;;;;;;9.92;58.66;101462.66;5048297;28;20079;-86
2021/10/22 02:06:30;;;;;;;0.10;0.10;;;;;;;9.89;58.03;101460.91;5047880;28;20052;-86
2021/10/22 02:08:56;;;;;;;0.63;0.63;;;;;;;9.93;58.45;101464.41;5044532;28;20041;-86
2021/10/22 02:11:23;;;;;;;0.40;0.40;;;;;;;9.94;58.24;101464.41;5048555;28;20029;-89
2021/10/22 02:13:50;;;;;;;0.10;0.10;;;;;;;9.97;58.90;101456.44;5045118;28;20056;-88
2021/10/22 02:16:16;;;;;;;0.10;0.10;;;;;;;9.96;58.47;101459.97;5043574;28;20361;-87
2021/10/22 02:18:43;;;;;;;0.10;0.10;;;;;;;9.99;59.00;101457.31;5042900;28;20427;-88
2021/10/22 02:21:10;;;;;;;0.10;0.10;;;;;;;9.95;58.68;101447.63;5037322;28;20021;-88
2021/10/22 02:23:36;;;;;;;0.10;0.10;;;;;;;9.97;58.93;101451.16;5038619;28;20029;-87
2021/10/22 02:26:03;;;;;;;0.10;0.10;;;;;;;10.00;58.63;101451.13;5036785;28;20408;-87
2021/10/22 02:28:30;;;;;;;0.10;0.10;;;;;;;10.12;58.50;101454.56;5042548;28;20468;-87
2021/10/22 02:30:56;;;;;;;0.10;0.10;;;;;;;10.18;58.85;101447.44;5044867;28;20040;-87
2021/10/22 02:33:23;;;;;;;0.52;0.38;;;;;;;10.27;58.44;101443.84;5043051;28;20041;-88
2021/10/22 02:35:49;;;;;;;0.10;0.10;;;;;;;10.33;58.81;101448.19;5044777;28;20030;-90
2021/10/22 02:38:15;;;;;;;0.10;0.10;;;;;;;10.43;58.56;101446.38;5037357;28;20037;-88
2021/10/22 02:40:42;;;;;;;0.17;0.17;;;;;;;10.46;58.95;101439.28;5037326;28;20036;-86
2021/10/22 02:43:08;;;;;;;0.10;0.10;;;;;;;10.54;58.50;101440.97;5039620;28;20060;-87
2021/10/22 02:45:35;;;;;;;0.10;0.10;;;;;;;10.59;58.96;101434.75;5041768;28;20079;-86
2021/10/22 02:48:01;;;;;;;0.28;0.28;;;;;;;10.63;58.41;101431.16;5044157;28;20108;-88
2021/10/22 02:50:28;;;;;;;0.00;0.00;;;;;;;10.68;58.62;101437.28;5041771;28;20055;-87
2021/10/22 02:52:54;;;;;;;0.00;0.00;;;;;;;10.76;58.50;101437.19;5036193;28;20025;-87
2021/10/22 02:55:21;;;;;;;0.10;0.10;;;;;;;10.86;58.76;101434.44;5042702;28;20534;-87
2021/10/22 02:57:47;;;;;;;0.10;0.10;;;;;;;10.89;58.56;101421.16;5040512;28;20040;-85
2021/10/22 03:00:14;;;;;;;0.10;0.10;;;;;;;10.94;58.29;101425.50;5042995;28;20521;-84
2021/10/22 03:02:40;;;;;;;0.05;0.05;;;;;;;11.06;58.09;101427.13;5038917;28;20041;-85
2021/10/22 03:05:09;;;;;;;0.10;0.10;;;;;;;11.00;57.52;101428.09;5042907;28;20078;-87
2021/10/22 03:07:35;;;;;;;0.10;0.10;;;;;;;11.20;57.94;101416.31;5033351;28;20374;-88
2021/10/22 03:10:03;;;;;;;0.00;0.00;;;;;;;11.26;58.08;101426.84;5043521;28;20025;-86
2021/10/22 03:12:30;;;;;;;0.10;0.10;;;;;;;11.33;58.18;101417.06;5035610;28;20029;-87
2021/10/22 03:14:56;;;;;;;0.10;0.10;;;;;;;11.40;57.90;101407.22;5044768;28;20040;-88
2021/10/22 03:17:22;;;;;;;0.10;0.10;;;;;;;11.37;57.85;101407.28;5046926;28;20508;-87
2021/10/22 03:19:49;;;;;;;0.10;0.10;;;;;;;11.59;57.91;101419.31;5044860;28;20052;-86
2021/10/22 03:22:16;;;;;;;1.45;1.35;;;;;;;11.64;57.21;101425.44;5045450;28;20462;-87
2021/10/22 03:24:42;;;;;;;0.25;0.25;;;;;;;11.70;57.49;101421.81;5049650;28;20033;-87
2021/10/22 03:27:12;;;;;;;0.10;0.10;;;;;;;11.80;57.05;101417.22;5039578;28;20029;-87
2021/10/22 03:29:39;;;;;;;0.10;0.10;;;;;;;11.79;57.20;101412.84;5036515;28;20060;-87
2021/10/22 03:32:06;;;;;;;0.00;0.00;;;;;;;11.78;57.38;101411.06;5037839;28;20030;-88
2021/10/22 03:34:32;;;;;;;0.10;0.10;;;;;;;11.96;57.52;101404.59;5047813;28;20033;-86
2021/10/22 03:36:59;;;;;;;0.00;0.00;;;;;;;11.98;56.97;101403.69;5046970;28;20028;-86
2021/10/22 03:39:25;;;;;;;0.10;0.10;;;;;;;12.12;57.19;101413.19;5043660;28;20027;-87
2021/10/22 03:41:51;;;;;;;0.10;0.10;;;;;;;12.05;57.23;101403.56;5039257;28;20037;-87
2021/10/22 03:44:18;;;;;;;0.10;0.10;;;;;;;12.15;57.32;101410.50;5039615;28;20501;-86
2021/10/22 03:46:44;;;;;;;0.10;0.10;;;;;;;12.19;56.96;101424.63;5044813;28;20086;-87
2021/10/22 03:49:10;;;;;;;0.08;0.08;;;;;;;12.10;57.62;101422.97;5041424;28;20037;-87
2021/10/22 03:51:37;;;;;;;0.10;0.10;;;;;;;11.96;58.02;101413.47;5041315;28;20059;-87
2021/10/22 03:54:04;;;;;;;0.05;0.05;;;;;;;12.06;58.15;101402.69;5045570;28;20090;-87
2021/10/22 03:56:30;;;;;;;0.38;0.38;;;;;;;12.03;58.40;101408.06;5041942;28;20105;-87
2021/10/22 03:58:56;;;;;;;0.10;0.10;;;;;;;12.26;58.51;101399.66;5048455;28;20057;-87
2021/10/22 04:01:23;;;;;;;14.77;1.35;;;;;;;12.16;58.39;101401.59;5041857;28;20033;-87
2021/10/22 04:03:49;;;;;;;0.05;0.05;;;;;;;12.26;58.88;101397.91;5038350;28;20037;-87
2021/10/22 04:06:16;;;;;;;0.30;0.30;;;;;;;12.43;59.16;101413.50;5039525;28;20034;-88
2021/10/22 04:08:42;;;;;;;0.10;0.10;;;;;;;12.36;59.85;101411.00;5047567;28;20087;-86
2021/10/22 04:11:08;;;;;;;0.10;0.10;;;;;;;12.23;60.02;101411.22;5045928;28;20029;-87
2021/10/22 04:13:34;;;;;;;0.10;0.10;;;;;;;12.34;59.90;101418.16;5060171;28;21165;-87
2021/10/22 04:16:01;;;;;;;0.10;0.10;;;;;;;12.07;60.81;101420.38;5039821;28;20037;-87
2021/10/22 04:18:27;;;;;;;0.10;0.10;;;;;;;12.18;60.52;101423.72;5044547;28;20424;-84
2021/10/22 04:20:56;;;;;;;0.10;0.10;;;;;;;12.21;60.09;101431.66;5038950;28;20037;-86
2021/10/22 04:23:22;;;;;;;0.10;0.10;;;;;;;12.35;60.02;101426.09;5044621;28;20476;-86
2021/10/22 04:25:49;;;;;;;0.10;0.10;;;;;;;12.43;59.49;101439.22;5042265;28;20091;-88
2021/10/22 04:28:16;;;;;;;0.08;0.08;;;;;;;12.49;59.76;101438.25;5044454;28;20119;-86
2021/10/22 04:30:42;;;;;;;0.10;0.10;;;;;;;12.38;58.79;101436.66;5046910;28;20037;-86
2021/10/22 04:33:08;;;;;;;0.08;0.08;;;;;;;12.41;58.69;101441.91;5042220;28;20049;-86
2021/10/22 04:35:35;;;;;;;0.32;0.32;;;;;;;12.56;58.32;101445.19;5041496;28;20128;-87
2021/10/22 04:40:30;;;;;;;0.10;0.10;;;;;;;12.58;58.01;101449.56;5045336;28;20033;-88
2021/10/22 04:40:51;;;;;;;0.00;0.00;;;;;;;12.64;57.78;101459.22;5044008;28;20039;-86
2021/10/22 04:43:18;;;;;;;0.10;0.10;;;;;;;12.66;57.24;101454.75;5041692;28;20072;-85
2021/10/22 04:45:50;;;;;;;0.68;0.68;;;;;;;12.59;54.96;101463.75;5041635;28;20244;-87
2021/10/22 04:48:16;;;;;;;0.10;0.10;;;;;;;12.77;54.77;101446.56;5038660;28;20502;-86
2021/10/22 04:50:48;;;;;;;0.10;0.10;;;;;;;12.64;53.92;101451.25;5043217;28;20494;-88
2021/10/22 04:53:15;;;;;;;0.10;0.10;;;;;;;12.85;54.03;101444.63;5038526;28;20855;-88
2021/10/22 04:55:41;;;;;;;0.10;0.10;;;;;;;12.89;52.91;101448.13;5040989;28;20551;-88
2021/10/22 04:58:08;;;;;;;0.10;0.10;;;;;;;13.06;53.66;101439.78;5042390;28;20506;-86
2021/10/22 05:00:35;;;;;;;0.10;0.10;;;;;;;12.93;53.42;101434.72;5038780;28;20698;-87
2021/10/22 05:03:01;;;;;;;0.10;0.10;;;;;;;13.04;53.25;101434.50;5038712;28;20036;-86
2021/10/22 05:05:28;;;;;;;0.00;0.00;;;;;;;13.07;52.62;101429.13;5041422;28;20124;-87
2021/10/22 05:07:54;;;;;;;0.05;0.05;;;;;;;12.99;52.62;101431.06;5043164;28;20033;-87
2021/10/22 05:10:21;;;;;;;0.10;0.10;;;;;;;13.07;52.98;101414.91;5038086;28;20431;-88
2021/10/22 05:12:48;;;;;;;0.05;0.05;;;;;;;13.07;52.88;101414.91;5040312;28;20472;-88
2021/10/22 05:15:14;;;;;;;0.30;0.30;;;;;;;13.05;52.18;101400.81;5041845;28;20034;-87
2021/10/22 05:17:40;;;;;;;0.00;0.00;;;;;;;13.01;52.48;101399.97;5039660;28;20029;-87
2021/10/22 05:20:09;;;;;;;0.03;0.03;;;;;;;13.04;52.99;101399.91;5040078;28;20144;-86
2021/10/22 05:22:36;;;;;;;0.10;0.10;;;;;;;13.16;52.52;101396.13;5043019;28;20051;-84
2021/10/22 05:25:05;;;;;;;0.10;0.10;;;;;;;13.11;53.04;101404.19;5044064;28;20057;-86
2021/10/22 05:27:31;;;;;;;0.57;0.57;;;;;;;13.04;53.69;101421.19;5039386;28;20116;-86
2021/10/22 05:29:57;;;;;;;0.10;0.10;;;;;;;13.03;55.39;101418.56;5040888;28;20032;-87
2021/10/22 05:32:24;;;;;;;0.08;0.08;;;;;;;12.85;56.83;101428.69;5045294;28;20033;-86
2021/10/22 05:34:50;;;;;;;0.10;0.10;;;;;;;12.47;59.12;101419.66;5045614;28;20208;-87
2021/10/22 05:37:20;;;;;;;0.00;0.00;;;;;;;12.14;61.39;101406.94;5043941;28;20037;-87
2021/10/22 05:39:46;;;;;;;0.10;0.10;;;;;;;12.04;61.42;101401.84;5044391;28;20040;-87
2021/10/22 05:42:13;;;;;;;0.10;0.10;;;;;;;12.03;61.34;101398.28;5044476;28;20373;-89
2021/10/22 05:44:39;;;;;;;0.10;0.10;;;;;;;11.88;62.52;101399.41;5044370;28;20398;-88
2021/10/22 05:47:06;;;;;;;0.10;0.10;;;;;;;11.64;63.50;101393.59;5043667;28;20026;-86
2021/10/22 05:49:33;;;;;;;0.00;0.00;;;;;;;11.66;63.39;101404.16;5041579;28;20400;-88
2021/10/22 05:52:10;;;;;;;0.10;0.10;;;;;;;11.57;62.95;101397.22;5051573;28;20032;-89
2021/10/22 05:54:53;;;;;;;0.00;0.00;;;;;;;11.81;62.73;101392.44;5043963;28;20073;-89
2021/10/22 05:57:19;;;;;;;0.20;0.20;;;;;;;11.82;62.87;101388.88;5023761;28;20021;-88
2021/10/22 05:59:46;;;;;;;0.10;0.10;;;;;;;11.78;62.40;101384.53;5048534;28;20024;-86
2021/10/22 06:02:12;;;;;;;0.10;0.10;;;;;;;11.81;62.72;101389.78;5054889;28;20025;-87
2021/10/22 06:04:38;;;;;;;0.10;0.10;;;;;;;11.85;62.85;101388.84;5055272;28;20029;-84
2021/10/22 06:07:04;;;;;;;0.20;0.20;;;;;;;11.75;62.42;101385.47;5044591;28;20029;-86
2021/10/22 06:09:33;;;;;;;0.10;0.10;;;;;;;11.81;61.42;101388.00;5049703;28;20115;-89
2021/10/22 06:11:59;;;;;;;0.10;0.10;;;;;;;11.76;60.87;101400.50;5051840;28;20025;-86
2021/10/22 06:14:29;;;;;;;0.03;0.03;;;;;;;11.98;60.69;101385.09;5046268;28;20484;-86
2021/10/22 06:16:55;;;;;;;0.00;0.00;;;;;;;11.92;60.60;101387.81;5046948;28;20365;-87
2021/10/22 06:19:26;;;;;;;0.10;0.10;;;;;;;11.97;59.76;101393.97;5047403;28;20465;-86
2021/10/22 06:22:05;;;;;;;0.10;0.10;;;;;;;11.85;59.63;101396.81;5038230;28;20134;-86
2021/10/22 06:24:33;;;;;;;0.10;0.10;;;;;;;11.85;58.59;101435.75;5039052;28;20029;-87
2021/10/22 06:26:59;;;;;;;0.95;0.95;;;;;;;11.78;58.09;101401.31;5058744;28;20032;-87
2021/10/22 06:29:25;;;;;;;0.10;0.10;;;;;;;11.77;57.84;101407.53;5058072;28;20041;-87
2021/10/22 06:31:51;;;;;;;0.10;0.10;;;;;;;11.81;56.22;101408.34;5053752;28;20025;-87
2021/10/22 06:34:21;;;;;;;0.10;0.10;;;;;;;12.00;55.64;101413.41;5047744;28;20038;-86
2021/10/22 06:36:47;;;;;;;0.10;0.10;;;;;;;12.12;55.58;101403.47;5048337;28;20096;-87
2021/10/22 06:39:14;;;;;;;0.10;0.10;;;;;;;12.10;55.99;101399.06;5050972;28;20021;-86
2021/10/22 06:41:40;;;;;;;0.15;0.15;;;;;;;12.08;55.60;101422.13;5053194;28;20069;-85
2021/10/22 06:44:06;;;;;;;0.00;0.00;;;;;;;12.21;55.46;101402.44;5051540;28;20524;-86
2021/10/22 06:46:33;;;;;;;0.10;0.10;;;;;;;12.10;55.77;101396.41;5048610;28;20057;-86
2021/10/22 06:49:00;;;;;;;0.10;0.10;;;;;;;12.06;55.04;101397.38;5043280;28;20029;-87
2021/10/22 06:51:26;;;;;;;0.10;0.10;;;;;;;12.23;55.28;101407.72;5045077;28;20035;-86
2021/10/22 06:53:53;;;;;;;0.10;0.10;;;;;;;12.29;54.83;101404.94;5048558;28;20116;-87
2021/10/22 06:56:20;;;;;;;0.10;0.10;;;;;;;12.14;55.09;101404.28;5043628;28;20519;-88
2021/10/22 06:58:46;;;;;;;0.10;0.10;;;;;;;12.29;55.39;101410.25;5040391;28;20095;-88
2021/10/22 07:01:12;;;;;;;0.47;0.47;;;;;;;12.29;55.06;101408.47;5052612;28;20403;-87
2021/10/22 07:03:42;;;;;;;0.13;0.13;;;;;;;12.18;54.92;101423.72;5050289;28;20111;-87
2021/10/22 07:08:56;;;;;;;1.00;1.00;;;;;;;12.32;55.48;101417.28;5037071;28;20041;-88
2021/10/22 07:11:24;;;;;;;0.10;0.10;;;;;;;12.29;55.25;101420.88;5039503;28;20052;-88
2021/10/22 07:13:53;;;;;;;0.10;0.10;;;;;;;12.15;54.69;101418.47;5038889;28;20025;-88
2021/10/22 07:16:21;;;;;;;0.10;0.10;;;;;;;12.29;55.27;101442.13;5044631;28;20030;-88
2021/10/22 07:18:50;;;;;;;0.22;0.22;;;;;;;12.50;54.30;101418.72;5057892;28;20019;-87
2021/10/22 07:21:17;;;;;;;0.10;0.10;;;;;;;12.45;54.12;101440.94;5061766;28;20104;-87
2021/10/22 07:23:46;;;;;;;0.00;0.00;;;;;;;12.48;54.31;101437.34;5067155;28;20052;-86
2021/10/22 07:26:13;;;;;;;0.10;0.10;;;;;;;12.57;54.14;101431.88;5058873;28;20094;-86
2021/10/22 07:28:40;;;;;;;0.10;0.10;;;;;;;12.63;53.53;101428.22;5054824;28;20099;-86
2021/10/22 07:31:10;;;;;;;0.10;0.10;;;;;;;12.65;54.11;101433.50;5054792;28;20507;-87
2021/10/22 07:33:41;;;;;;;3.25;2.95;;;;;;;12.66;53.89;101444.13;5046804;28;20037;-87
2021/10/22 07:36:09;;;;;;;0.10;0.10;;;;;;;12.78;53.37;101440.34;5040126;28;20084;-87
2021/10/22 07:38:36;;;;;;;0.10;0.10;;;;;;;12.82;53.79;101442.00;5035882;28;20037;-87
2021/10/22 07:41:03;;;;;;;0.10;0.10;;;;;;;12.93;53.26;101439.16;5034691;28;20030;-87
2021/10/22 07:43:30;;;;;;;0.08;0.08;;;;;;;12.99;54.02;101448.81;5048026;28;20029;-87
2021/10/22 07:45:58;;;;;;;0.10;0.10;;;;;;;13.02;52.96;101456.72;5044396;28;20021;-87
2021/10/22 07:48:24;;;;;;;0.10;0.10;;;;;;;12.99;52.64;101449.66;5037627;28;20029;-87
2021/10/22 07:50:51;;;;;;;0.10;0.10;;;;;;;13.06;53.17;101448.66;5059390;28;20032;-87
2021/10/22 07:53:17;;;;;;;0.10;0.10;;;;;;;12.98;53.33;101463.00;5066762;28;20468;-87
2021/10/22 07:55:46;;;;;;;0.10;0.10;;;;;;;13.03;53.28;101450.50;5057308;28;20423;-83
2021/10/22 07:58:12;;;;;;;0.10;0.10;;;;;;;13.10;53.05;101462.75;5055907;28;20078;-88
2021/10/22 08:00:39;;;;;;;0.10;0.10;;;;;;;13.10;53.32;101458.31;5054143;28;20040;-85
2021/10/22 08:03:05;;;;;;;0.10;0.10;;;;;;;13.05;53.41;101475.28;5056113;28;20025;-86
2021/10/22 08:05:31;;;;;;;0.32;0.32;;;;;;;13.29;52.89;101463.25;5051044;28;20029;-86
2021/10/22 08:07:57;;;;;;;0.03;0.03;;;;;;;13.36;52.06;101451.56;5054024;28;20024;-85
2021/10/22 08:10:24;;;;;;;0.10;0.10;;;;;;;13.26;51.70;101474.81;5053510;28;20017;-86
2021/10/22 08:12:51;;;;;;;1.90;1.77;;;;;;;13.48;51.95;101458.41;5052106;28;20028;-84
2021/10/22 08:15:18;;;;;;;0.10;0.10;;;;;;;13.29;52.36;101470.38;5040594;28;20025;-87
2021/10/22 08:17:44;;;;;;;0.10;0.10;;;;;;;13.53;52.57;101466.31;5050262;28;20083;-87
2021/10/22 08:20:17;;;;;;;0.10;0.10;;;;;;;13.43;52.54;101487.81;5061070;28;20090;-87
2021/10/22 08:22:43;;;;;;;0.10;0.10;;;;;;;13.45;52.71;101474.47;5066582;28;20024;-87
2021/10/22 08:25:12;;;;;;;0.52;0.52;;;;;;;13.50;52.53;101464.59;5064018;28;20388;-87
2021/10/22 08:30:25;;;;;;;0.10;0.10;;;;;;;13.80;52.82;101474.59;5050094;28;20411;-82
2021/10/22 08:32:55;;;;;;;0.03;0.03;;;;;;;13.75;52.21;101467.56;5049540;28;20159;-83
2021/10/22 08:35:26;;;;;;;0.00;0.00;;;;;;;13.96;52.58;101469.78;5042004;28;20033;-83
2021/10/22 08:37:53;;;;;;;0.10;0.10;;;;;;;13.84;52.14;101470.94;5049207;28;20027;-88
2021/10/22 08:40:21;;;;;;;0.10;0.10;;;;;;;13.81;52.67;101477.22;5048887;28;20033;-84
2021/10/22 08:42:51;;;;;;;2.90;2.17;;;;;;;13.98;52.45;101500.81;5036866;28;20073;-92
2021/10/22 08:45:18;;;;;;;0.13;0.13;;;;;;;14.18;52.00;101481.66;5047479;28;20037;-85
2021/10/22 08:47:46;;;;;;;0.10;0.10;;;;;;;14.02;54.05;101490.94;5048391;28;20060;-85
2021/10/22 08:50:15;;;;;;;0.93;0.90;;;;;;;14.00;54.09;101492.75;5048420;28;20107;-85
2021/10/22 08:52:42;;;;;;;0.22;0.22;;;;;;;13.98;54.60;101483.91;5046594;28;20388;-86
2021/10/22 08:55:11;;;;;;;0.10;0.10;;;;;;;13.84;54.98;101490.44;5048566;28;20033;-86
2021/10/22 08:57:42;;;;;;;0.10;0.10;;;;;;;13.77;54.82;101478.19;5048998;28;20021;-86
2021/10/22 09:00:10;;;;;;;0.10;0.10;;;;;;;13.63;54.73;101489.16;5047071;28;20083;-85
2021/10/22 09:02:36;;;;;;;0.10;0.10;;;;;;;13.69;54.49;101493.47;5049054;28;20033;-86
2021/10/22 09:05:20;;;;;;;0.10;0.10;;;;;;;13.99;54.48;101493.66;5047454;28;20029;-86
2021/10/22 09:07:50;;;;;;;0.10;0.10;;;;;;;13.78;54.47;101508.38;5048603;28;20048;-88
2021/10/22 09:10:20;;;;;;;0.10;0.10;;;;;;;13.81;53.73;101487.00;5048401;28;20392;-86
2021/10/22 09:15:33;;;;;;;0.10;0.10;;;;;;;14.17;53.52;101498.56;5058335;27;20414;-87
2021/10/22 09:18:05;;;;;;;0.40;0.40;;;;;;;14.14;53.08;101511.94;5043090;28;20518;-86
2021/10/22 09:20:31;;;;;;;0.75;0.75;;;;;;;14.07;52.79;101543.19;5044921;28;20380;-86
2021/10/22 09:23:00;;;;;;;0.10;0.10;;;;;;;14.10;52.36;101502.28;5041795;28;20033;-85
2021/10/22 09:25:29;;;;;;;1.60;1.17;;;;;;;14.57;52.30;101505.53;5039163;28;20061;-86
2021/10/22 09:28:00;;;;;;;0.10;0.10;;;;;;;14.44;52.36;101520.09;5043028;28;20025;-85
2021/10/22 09:30:37;;;;;;;0.10;0.10;;;;;;;14.48;52.30;101518.22;5041501;28;20030;-84
2021/10/22 09:33:12;;;;;;;0.10;0.10;;;;;;;14.52;51.97;101512.78;5051639;28;20113;-85
2021/10/22 09:35:43;;;;;;;0.10;0.10;;;;;;;14.41;51.92;101514.84;5043390;28;20037;-86
2021/10/22 09:40:59;;;;;;;0.10;0.10;;;;;;;14.30;52.73;101531.09;5061490;27;20451;-82
2021/10/22 09:43:30;;;;;;;0.10;0.10;;;;;;;14.42;52.47;101527.28;5038721;28;20026;-83
2021/10/22 09:46:17;;;;;;;0.10;0.10;;;;;;;14.68;53.26;101534.63;5038690;28;20031;-82
2021/10/22 09:48:46;;;;;;;0.08;0.08;;;;;;;14.26;53.17;101544.56;5035638;28;20061;-84
2021/10/22 09:54:11;;;;;;;0.43;0.32;;;;;;;14.55;53.01;101538.50;5071475;27;20407;-84
2021/10/22 09:56:41;;;;;;;0.10;0.10;;;;;;;14.57;53.19;101556.19;5058466;28;20476;-83
2021/10/22 09:59:10;;;;;;;0.03;0.03;;;;;;;14.50;53.49;101557.25;5050923;28;20126;-82
2021/10/22 10:04:38;;;;;;;0.10;0.10;;;;;;;14.83;53.35;101559.16;5093649;27;20412;-84
2021/10/22 10:07:06;;;;;;;2.30;0.68;;;;;;;14.98;53.81;101553.41;5087116;28;20036;-83
2021/10/22 10:09:33;;;;;;;0.10;0.10;;;;;;;14.75;53.10;101546.00;5085040;28;20039;-88
2021/10/22 10:12:02;;;;;;;0.88;0.88;;;;;;;14.74;52.89;101560.25;5074079;28;20025;-90
2021/10/22 10:14:28;;;;;;;0.15;0.15;;;;;;;14.87;53.01;101555.50;5065596;28;20530;-83
2021/10/22 10:16:56;;;;;;;0.20;0.20;;;;;;;14.97;53.44;101556.13;5063514;28;20025;-83
2021/10/22 10:22:09;;;;;;;0.10;0.10;;;;;;;14.67;55.01;101580.88;5080312;28;20414;-87
2021/10/22 10:27:23;;;;;;;0.10;0.10;;;;;;;14.37;56.51;101571.84;5070539;27;20835;-89
2021/10/22 10:29:55;;;;;;;0.10;0.10;;;;;;;14.46;56.67;101589.41;5054158;28;20029;-87
2021/10/22 10:32:24;;;;;;;0.10;0.10;;;;;;;14.13;57.71;101576.84;5055698;28;20033;-86
2021/10/22 10:37:47;;;;;;;0.10;0.10;;;;;;;13.90;58.21;101591.53;5074037;27;20428;-85
2021/10/22 10:40:31;;;;;;;0.10;0.10;;;;;;;13.85;61.02;101612.06;5067261;28;20442;-86
2021/10/22 10:43:00;;;;;;;0.15;0.15;;;;;;;13.67;60.41;101636.41;5066125;28;20407;-84
2021/10/22 10:50:53;;;;;;;0.10;0.10;;;;;;;13.92;59.75;101626.16;5137450;27;20383;-87
2021/10/22 10:53:40;;;;;;;0.35;0.35;;;;;;;14.18;58.62;101598.03;5120311;27;20024;-86
2021/10/22 10:56:19;;;;;;;0.10;0.10;;;;;;;14.26;59.02;101589.88;5118836;28;20030;-86
2021/10/22 10:58:47;;;;;;;1.65;0.90;;;;;;;14.17;59.26;101591.84;5118942;28;20027;-87
2021/10/22 11:01:21;;;;;;;0.10;0.10;;;;;;;14.08;58.91;101602.69;5118659;28;20028;-85
2021/10/22 11:03:48;;;;;;;0.10;0.10;;;;;;;14.12;58.15;101599.06;5117938;27;20028;-87
2021/10/22 11:06:35;;;;;;;0.10;0.10;;;;;;;14.05;58.48;101597.44;5121196;28;20058;-88
2021/10/22 11:09:03;;;;;;;0.10;0.10;;;;;;;13.93;58.15;101651.00;5119719;27;20390;-85
2021/10/22 11:11:34;;;;;;;0.10;0.10;;;;;;;14.03;58.79;101609.91;5117377;28;20028;-87
2021/10/22 11:19:31;;;;;;;0.10;0.10;;;;;;;13.93;58.54;101637.66;5054161;28;20388;-86
2021/10/22 11:22:02;;;;;;;0.10;0.10;;;;;;;14.10;58.93;101642.66;5046829;28;20499;-88
2021/10/22 11:24:54;;;;;;;0.10;0.10;;;;;;;13.96;59.54;101629.63;5038765;28;20189;-88
2021/10/22 11:27:23;;;;;;;0.10;0.10;;;;;;;13.99;59.56;101632.22;5043270;28;20060;-87
2021/10/22 11:29:51;;;;;;;0.10;0.10;;;;;;;13.90;60.36;101639.47;5048696;28;20028;-87
2021/10/22 11:32:21;;;;;;;0.05;0.05;;;;;;;13.83;61.75;101645.88;5039158;28;20026;-87
2021/10/22 11:35:01;;;;;;;0.10;0.10;;;;;;;13.99;60.39;101642.88;5039392;28;20065;-86
2021/10/22 11:37:31;;;;;;;0.20;0.20;;;;;;;13.70;60.65;101650.56;5048186;28;20484;-87
2021/10/22 11:39:57;;;;;;;0.10;0.10;;;;;;;13.61;60.63;101649.84;5046810;28;20156;-86
2021/10/22 11:42:28;;;;;;;0.10;0.10;;;;;;;13.70;59.71;101658.53;5029787;28;20026;-87
2021/10/22 11:45:03;;;;;;;1.20;0.93;;;;;;;13.61;59.21;101660.50;5029408;28;20022;-87
2021/10/22 11:47:32;;;;;;;0.10;0.10;;;;;;;13.77;59.71;101646.00;5028969;28;20049;-87
2021/10/22 11:53:15;;;;;;;0.10;0.10;;;;;;;14.23;58.26;101653.00;5030881;27;1256147;-87
2021/10/22 11:55:49;;;;;;;0.10;0.10;;;;;;;14.30;56.89;101650.19;5067807;28;20479;-87
2021/10/22 11:58:18;;;;;;;0.10;0.10;;;;;;;14.44;56.58;101653.41;5067656;28;20582;-86
2021/10/22 12:01:00;;;;;;;0.00;0.00;;;;;;;14.53;56.75;101647.88;5058874;28;20021;-88
2021/10/22 12:03:41;;;;;;;0.10;0.10;;;;;;;14.68;55.28;101651.13;5046531;28;20486;-90
2021/10/22 12:06:24;;;;;;;0.10;0.10;;;;;;;14.85;55.33;101642.69;5046770;28;20112;-91
2021/10/22 12:08:51;;;;;;;0.10;0.10;;;;;;;15.05;55.73;101636.84;5046831;28;20495;-86
2021/10/22 12:11:19;;;;;;;8.98;1.80;;;;;;;15.13;54.71;101647.34;5048253;28;20400;-86